sensor_id;sensor_type;location;lat;lon;timestamp;temperature;humidity
7240;DHT22;3661;53.288;10.458;2023-05-10T00:01:29;14.70;76.80
7240;DHT22;3661;53.288;10.458;2023-05-10T00:04:01;14.60;76.80
7240;DHT22;3661;53.288;10.458;2023-05-10T00:06:33;14.60;76.90
7240;DHT22;3661;53.288;10.458;2023-05-10T00:09:06;14.60;77.00
7240;DHT22;3661;53.288;10.458;2023-05-10T00:11:39;14.60;77.10
7240;DHT22;3661;53.288;10.458;2023-05-10T00:14:11;14.60;77.30
7240;DHT22;3661;53.288;10.458;2023-05-10T00:16:45;14.50;77.20
7240;DHT22;3661;53.288;10.458;2023-05-10T00:19:17;14.50;77.30
7240;DHT22;3661;53.288;10.458;2023-05-10T00:21:49;14.50;77.30
7240;DHT22;3661;53.288;10.458;2023-05-10T00:24:23;14.50;77.50
7240;DHT22;3661;53.288;10.458;2023-05-10T00:26:55;14.50;77.60
7240;DHT22;3661;53.288;10.458;2023-05-10T00:29:27;14.40;77.60
7240;DHT22;3661;53.288;10.458;2023-05-10T00:32:06;14.40;77.70
7240;DHT22;3661;53.288;10.458;2023-05-10T00:34:38;14.40;77.70
7240;DHT22;3661;53.288;10.458;2023-05-10T00:37:11;14.40;77.80
7240;DHT22;3661;53.288;10.458;2023-05-10T00:39:43;14.40;78.00
7240;DHT22;3661;53.288;10.458;2023-05-10T00:42:15;14.30;77.90
7240;DHT22;3661;53.288;10.458;2023-05-10T00:44:47;14.30;78.00
7240;DHT22;3661;53.288;10.458;2023-05-10T00:47:22;14.30;78.10
7240;DHT22;3661;53.288;10.458;2023-05-10T00:49:54;14.30;78.10
7240;DHT22;3661;53.288;10.458;2023-05-10T00:52:27;14.30;78.20
7240;DHT22;3661;53.288;10.458;2023-05-10T00:55:00;14.20;78.10
7240;DHT22;3661;53.288;10.458;2023-05-10T00:57:34;14.20;78.40
7240;DHT22;3661;53.288;10.458;2023-05-10T01:00:07;14.20;78.60
7240;DHT22;3661;53.288;10.458;2023-05-10T01:02:42;14.20;79.50
7240;DHT22;3661;53.288;10.458;2023-05-10T01:05:14;14.10;78.80
7240;DHT22;3661;53.288;10.458;2023-05-10T01:07:49;14.10;79.00
7240;DHT22;3661;53.288;10.458;2023-05-10T01:10:21;14.10;79.00
7240;DHT22;3661;53.288;10.458;2023-05-10T01:12:56;14.10;79.10
7240;DHT22;3661;53.288;10.458;2023-05-10T01:15:30;14.10;79.20
7240;DHT22;3661;53.288;10.458;2023-05-10T01:18:05;14.00;79.20
7240;DHT22;3661;53.288;10.458;2023-05-10T01:20:43;14.00;79.20
7240;DHT22;3661;53.288;10.458;2023-05-10T01:23:35;14.00;79.40
7240;DHT22;3661;53.288;10.458;2023-05-10T01:26:34;14.00;79.60
7240;DHT22;3661;53.288;10.458;2023-05-10T01:32:36;13.90;79.70
7240;DHT22;3661;53.288;10.458;2023-05-10T01:35:17;13.90;79.90
7240;DHT22;3661;53.288;10.458;2023-05-10T01:38:04;13.90;80.00
7240;DHT22;3661;53.288;10.458;2023-05-10T01:40:48;13.80;80.00
7240;DHT22;3661;53.288;10.458;2023-05-10T01:43:26;13.80;80.10
7240;DHT22;3661;53.288;10.458;2023-05-10T01:46:02;13.80;80.20
7240;DHT22;3661;53.288;10.458;2023-05-10T01:48:47;13.70;80.30
7240;DHT22;3661;53.288;10.458;2023-05-10T01:51:23;13.70;80.40
7240;DHT22;3661;53.288;10.458;2023-05-10T01:54:00;13.70;80.60
7240;DHT22;3661;53.288;10.458;2023-05-10T01:56:35;13.70;80.70
7240;DHT22;3661;53.288;10.458;2023-05-10T01:59:17;13.60;80.70
7240;DHT22;3661;53.288;10.458;2023-05-10T02:01:51;13.60;81.50
7240;DHT22;3661;53.288;10.458;2023-05-10T02:04:27;13.60;81.00
7240;DHT22;3661;53.288;10.458;2023-05-10T02:07:00;13.50;80.90
7240;DHT22;3661;53.288;10.458;2023-05-10T02:09:35;13.50;81.10
7240;DHT22;3661;53.288;10.458;2023-05-10T02:12:09;13.50;81.20
7240;DHT22;3661;53.288;10.458;2023-05-10T02:14:42;13.40;81.20
7240;DHT22;3661;53.288;10.458;2023-05-10T02:17:19;13.40;81.30
7240;DHT22;3661;53.288;10.458;2023-05-10T02:19:54;13.40;81.40
7240;DHT22;3661;53.288;10.458;2023-05-10T02:22:30;13.40;81.40
7240;DHT22;3661;53.288;10.458;2023-05-10T02:25:04;13.40;81.70
7240;DHT22;3661;53.288;10.458;2023-05-10T02:27:39;13.30;81.80
7240;DHT22;3661;53.288;10.458;2023-05-10T02:30:14;13.30;81.80
7240;DHT22;3661;53.288;10.458;2023-05-10T02:32:48;13.20;81.80
7240;DHT22;3661;53.288;10.458;2023-05-10T02:35:22;13.20;82.00
7240;DHT22;3661;53.288;10.458;2023-05-10T02:37:56;13.20;82.10
7240;DHT22;3661;53.288;10.458;2023-05-10T02:40:30;13.20;82.30
7240;DHT22;3661;53.288;10.458;2023-05-10T02:43:06;13.20;82.40
7240;DHT22;3661;53.288;10.458;2023-05-10T02:45:41;13.10;82.40
7240;DHT22;3661;53.288;10.458;2023-05-10T02:48:15;13.10;82.60
7240;DHT22;3661;53.288;10.458;2023-05-10T02:50:52;13.10;82.70
7240;DHT22;3661;53.288;10.458;2023-05-10T02:53:30;13.00;82.70
7240;DHT22;3661;53.288;10.458;2023-05-10T02:56:09;13.00;82.90
7240;DHT22;3661;53.288;10.458;2023-05-10T02:58:44;13.00;83.00
7240;DHT22;3661;53.288;10.458;2023-05-10T03:01:17;12.90;83.10
7240;DHT22;3661;53.288;10.458;2023-05-10T03:03:49;12.90;83.10
7240;DHT22;3661;53.288;10.458;2023-05-10T03:06:22;12.90;83.30
7240;DHT22;3661;53.288;10.458;2023-05-10T03:08:54;12.90;83.40
7240;DHT22;3661;53.288;10.458;2023-05-10T03:11:39;12.80;83.50
7240;DHT22;3661;53.288;10.458;2023-05-10T03:14:27;12.80;83.60
7240;DHT22;3661;53.288;10.458;2023-05-10T03:17:06;12.80;83.80
7240;DHT22;3661;53.288;10.458;2023-05-10T03:19:43;12.80;83.90
7240;DHT22;3661;53.288;10.458;2023-05-10T03:22:24;12.70;84.00
7240;DHT22;3661;53.288;10.458;2023-05-10T03:24:58;12.70;84.00
7240;DHT22;3661;53.288;10.458;2023-05-10T03:27:32;12.70;84.90
7240;DHT22;3661;53.288;10.458;2023-05-10T03:30:08;12.70;84.40
7240;DHT22;3661;53.288;10.458;2023-05-10T03:32:42;12.60;84.50
7240;DHT22;3661;53.288;10.458;2023-05-10T03:35:14;12.60;84.70
7240;DHT22;3661;53.288;10.458;2023-05-10T03:37:47;12.60;84.80
7240;DHT22;3661;53.288;10.458;2023-05-10T03:40:19;12.60;84.80
7240;DHT22;3661;53.288;10.458;2023-05-10T03:42:52;12.50;84.90
7240;DHT22;3661;53.288;10.458;2023-05-10T03:45:25;12.50;85.00
7240;DHT22;3661;53.288;10.458;2023-05-10T03:47:57;12.50;85.00
7240;DHT22;3661;53.288;10.458;2023-05-10T03:50:29;12.50;85.20
7240;DHT22;3661;53.288;10.458;2023-05-10T03:53:03;12.50;85.50
7240;DHT22;3661;53.288;10.458;2023-05-10T03:55:35;12.50;85.60
7240;DHT22;3661;53.288;10.458;2023-05-10T03:58:11;12.50;85.70
7240;DHT22;3661;53.288;10.458;2023-05-10T04:00:43;12.40;85.80
7240;DHT22;3661;53.288;10.458;2023-05-10T04:03:16;12.40;85.80
7240;DHT22;3661;53.288;10.458;2023-05-10T04:05:48;12.40;85.90
7240;DHT22;3661;53.288;10.458;2023-05-10T04:08:21;12.40;86.00
7240;DHT22;3661;53.288;10.458;2023-05-10T04:10:53;12.40;86.00
7240;DHT22;3661;53.288;10.458;2023-05-10T04:13:27;12.40;86.70
7240;DHT22;3661;53.288;10.458;2023-05-10T04:15:59;12.50;86.20
7240;DHT22;3661;53.288;10.458;2023-05-10T04:18:32;12.50;86.20
7240;DHT22;3661;53.288;10.458;2023-05-10T04:21:04;12.50;86.20
7240;DHT22;3661;53.288;10.458;2023-05-10T04:23:41;12.50;86.40
7240;DHT22;3661;53.288;10.458;2023-05-10T04:26:13;12.50;86.50
7240;DHT22;3661;53.288;10.458;2023-05-10T04:28:45;12.50;86.50
7240;DHT22;3661;53.288;10.458;2023-05-10T04:31:17;12.50;86.60
7240;DHT22;3661;53.288;10.458;2023-05-10T04:33:52;12.50;86.60
7240;DHT22;3661;53.288;10.458;2023-05-10T04:36:24;12.60;87.00
7240;DHT22;3661;53.288;10.458;2023-05-10T04:38:59;12.60;87.30
7240;DHT22;3661;53.288;10.458;2023-05-10T04:41:33;12.60;87.20
7240;DHT22;3661;53.288;10.458;2023-05-10T04:44:05;12.60;87.10
7240;DHT22;3661;53.288;10.458;2023-05-10T04:46:37;12.60;87.30
7240;DHT22;3661;53.288;10.458;2023-05-10T04:49:09;12.70;87.40
7240;DHT22;3661;53.288;10.458;2023-05-10T04:51:44;12.70;87.50
7240;DHT22;3661;53.288;10.458;2023-05-10T04:54:17;12.70;87.40
7240;DHT22;3661;53.288;10.458;2023-05-10T04:56:49;12.70;87.30
7240;DHT22;3661;53.288;10.458;2023-05-10T04:59:21;12.70;87.30
7240;DHT22;3661;53.288;10.458;2023-05-10T05:01:53;12.80;87.40
7240;DHT22;3661;53.288;10.458;2023-05-10T05:04:25;12.80;87.60
7240;DHT22;3661;53.288;10.458;2023-05-10T05:06:57;12.90;87.90
7240;DHT22;3661;53.288;10.458;2023-05-10T05:09:31;12.90;88.20
7240;DHT22;3661;53.288;10.458;2023-05-10T05:12:04;13.00;88.60
7240;DHT22;3661;53.288;10.458;2023-05-10T05:14:36;13.00;88.90
7240;DHT22;3661;53.288;10.458;2023-05-10T05:17:08;13.10;89.10
7240;DHT22;3661;53.288;10.458;2023-05-10T05:19:40;13.10;89.50
7240;DHT22;3661;53.288;10.458;2023-05-10T05:22:13;13.20;89.80
7240;DHT22;3661;53.288;10.458;2023-05-10T05:24:47;13.20;90.00
7240;DHT22;3661;53.288;10.458;2023-05-10T05:27:19;13.30;90.20
7240;DHT22;3661;53.288;10.458;2023-05-10T05:29:53;13.40;90.40
7240;DHT22;3661;53.288;10.458;2023-05-10T05:32:25;13.50;90.50
7240;DHT22;3661;53.288;10.458;2023-05-10T05:34:57;13.60;90.60
7240;DHT22;3661;53.288;10.458;2023-05-10T05:37:29;13.60;90.60
7240;DHT22;3661;53.288;10.458;2023-05-10T05:40:04;13.70;90.70
7240;DHT22;3661;53.288;10.458;2023-05-10T05:42:36;13.80;90.80
7240;DHT22;3661;53.288;10.458;2023-05-10T05:45:09;13.90;90.90
7240;DHT22;3661;53.288;10.458;2023-05-10T05:47:43;14.00;90.90
7240;DHT22;3661;53.288;10.458;2023-05-10T05:50:15;14.00;90.80
7240;DHT22;3661;53.288;10.458;2023-05-10T05:52:50;14.10;90.80
7240;DHT22;3661;53.288;10.458;2023-05-10T05:55:24;14.10;90.80
7240;DHT22;3661;53.288;10.458;2023-05-10T05:57:56;14.20;90.80
7240;DHT22;3661;53.288;10.458;2023-05-10T06:00:28;14.20;90.70
7240;DHT22;3661;53.288;10.458;2023-05-10T06:03:00;14.30;90.60
7240;DHT22;3661;53.288;10.458;2023-05-10T06:05:32;14.30;90.60
7240;DHT22;3661;53.288;10.458;2023-05-10T06:08:05;14.40;90.60
7240;DHT22;3661;53.288;10.458;2023-05-10T06:10:38;14.40;90.60
7240;DHT22;3661;53.288;10.458;2023-05-10T06:13:10;14.50;90.60
7240;DHT22;3661;53.288;10.458;2023-05-10T06:15:42;14.50;90.90
7240;DHT22;3661;53.288;10.458;2023-05-10T06:18:15;14.60;90.50
7240;DHT22;3661;53.288;10.458;2023-05-10T06:20:47;14.60;90.40
7240;DHT22;3661;53.288;10.458;2023-05-10T06:23:19;14.60;90.20
7240;DHT22;3661;53.288;10.458;2023-05-10T06:25:52;14.70;90.10
7240;DHT22;3661;53.288;10.458;2023-05-10T06:28:24;14.70;90.10
7240;DHT22;3661;53.288;10.458;2023-05-10T06:30:56;14.70;90.00
7240;DHT22;3661;53.288;10.458;2023-05-10T06:33:28;14.80;90.10
7240;DHT22;3661;53.288;10.458;2023-05-10T06:36:00;14.80;90.10
7240;DHT22;3661;53.288;10.458;2023-05-10T06:38:32;14.90;90.20
7240;DHT22;3661;53.288;10.458;2023-05-10T06:41:06;15.00;90.30
7240;DHT22;3661;53.288;10.458;2023-05-10T06:43:38;15.10;90.40
7240;DHT22;3661;53.288;10.458;2023-05-10T06:46:11;15.10;90.50
7240;DHT22;3661;53.288;10.458;2023-05-10T06:48:43;15.20;90.50
7240;DHT22;3661;53.288;10.458;2023-05-10T06:51:16;15.30;90.50
7240;DHT22;3661;53.288;10.458;2023-05-10T06:53:48;15.30;90.50
7240;DHT22;3661;53.288;10.458;2023-05-10T06:56:21;15.40;90.50
7240;DHT22;3661;53.288;10.458;2023-05-10T06:58:53;15.40;90.40
7240;DHT22;3661;53.288;10.458;2023-05-10T07:01:26;15.40;90.30
7240;DHT22;3661;53.288;10.458;2023-05-10T07:03:58;15.50;90.30
7240;DHT22;3661;53.288;10.458;2023-05-10T07:06:30;15.50;90.30
7240;DHT22;3661;53.288;10.458;2023-05-10T07:09:02;15.50;90.50
7240;DHT22;3661;53.288;10.458;2023-05-10T07:11:39;15.60;90.20
7240;DHT22;3661;53.288;10.458;2023-05-10T07:14:11;15.60;90.20
7240;DHT22;3661;53.288;10.458;2023-05-10T07:16:43;15.60;90.30
7240;DHT22;3661;53.288;10.458;2023-05-10T07:19:15;15.70;90.40
7240;DHT22;3661;53.288;10.458;2023-05-10T07:21:47;15.70;90.30
7240;DHT22;3661;53.288;10.458;2023-05-10T07:24:19;15.80;90.30
7240;DHT22;3661;53.288;10.458;2023-05-10T07:26:53;15.90;90.40
7240;DHT22;3661;53.288;10.458;2023-05-10T07:29:25;15.90;90.40
7240;DHT22;3661;53.288;10.458;2023-05-10T07:31:57;16.00;90.80
7240;DHT22;3661;53.288;10.458;2023-05-10T07:34:29;16.10;90.60
7240;DHT22;3661;53.288;10.458;2023-05-10T07:37:02;16.10;90.60
7240;DHT22;3661;53.288;10.458;2023-05-10T07:39:34;16.20;90.70
7240;DHT22;3661;53.288;10.458;2023-05-10T07:42:08;16.30;90.70
7240;DHT22;3661;53.288;10.458;2023-05-10T07:44:40;16.40;90.90
7240;DHT22;3661;53.288;10.458;2023-05-10T07:47:12;16.60;91.00
7240;DHT22;3661;53.288;10.458;2023-05-10T07:49:44;16.70;91.10
7240;DHT22;3661;53.288;10.458;2023-05-10T07:52:16;16.80;91.00
7240;DHT22;3661;53.288;10.458;2023-05-10T07:54:48;16.80;90.90
7240;DHT22;3661;53.288;10.458;2023-05-10T07:57:22;16.90;90.90
7240;DHT22;3661;53.288;10.458;2023-05-10T07:59:54;17.00;90.90
7240;DHT22;3661;53.288;10.458;2023-05-10T08:02:26;17.10;90.90
7240;DHT22;3661;53.288;10.458;2023-05-10T08:04:58;17.10;90.80
7240;DHT22;3661;53.288;10.458;2023-05-10T08:07:30;17.20;90.80
7240;DHT22;3661;53.288;10.458;2023-05-10T08:10:03;17.30;90.70
7240;DHT22;3661;53.288;10.458;2023-05-10T08:12:37;17.30;90.50
7240;DHT22;3661;53.288;10.458;2023-05-10T08:15:11;17.40;90.50
7240;DHT22;3661;53.288;10.458;2023-05-10T08:17:43;17.50;90.50
7240;DHT22;3661;53.288;10.458;2023-05-10T08:20:15;17.50;90.50
7240;DHT22;3661;53.288;10.458;2023-05-10T08:22:49;17.60;90.60
7240;DHT22;3661;53.288;10.458;2023-05-10T08:25:21;17.60;90.60
7240;DHT22;3661;53.288;10.458;2023-05-10T08:27:55;17.70;90.60
7240;DHT22;3661;53.288;10.458;2023-05-10T08:30:27;17.80;90.50
7240;DHT22;3661;53.288;10.458;2023-05-10T08:32:59;17.80;90.40
7240;DHT22;3661;53.288;10.458;2023-05-10T08:35:31;17.90;90.50
7240;DHT22;3661;53.288;10.458;2023-05-10T08:38:03;18.00;90.50
7240;DHT22;3661;53.288;10.458;2023-05-10T08:40:37;18.10;90.50
7240;DHT22;3661;53.288;10.458;2023-05-10T08:43:11;18.10;90.60
7240;DHT22;3661;53.288;10.458;2023-05-10T08:45:45;18.20;90.60
7240;DHT22;3661;53.288;10.458;2023-05-10T08:51:35;18.20;90.50
7240;DHT22;3661;53.288;10.458;2023-05-10T08:54:08;18.30;90.50
7240;DHT22;3661;53.288;10.458;2023-05-10T08:56:40;18.30;90.70
7240;DHT22;3661;53.288;10.458;2023-05-10T08:59:14;18.30;90.40
7240;DHT22;3661;53.288;10.458;2023-05-10T09:01:47;18.20;90.30
7240;DHT22;3661;53.288;10.458;2023-05-10T09:04:20;18.20;90.40
7240;DHT22;3661;53.288;10.458;2023-05-10T09:06:52;18.20;90.50
7240;DHT22;3661;53.288;10.458;2023-05-10T09:09:25;18.20;90.60
7240;DHT22;3661;53.288;10.458;2023-05-10T09:11:58;18.20;90.70
7240;DHT22;3661;53.288;10.458;2023-05-10T09:14:35;18.10;90.60
7240;DHT22;3661;53.288;10.458;2023-05-10T09:17:07;18.10;90.80
7240;DHT22;3661;53.288;10.458;2023-05-10T09:19:40;18.10;90.80
7240;DHT22;3661;53.288;10.458;2023-05-10T09:22:12;18.00;90.70
7240;DHT22;3661;53.288;10.458;2023-05-10T09:25:03;18.00;90.80
7240;DHT22;3661;53.288;10.458;2023-05-10T09:27:37;18.00;90.80
7240;DHT22;3661;53.288;10.458;2023-05-10T09:30:16;18.00;90.90
7240;DHT22;3661;53.288;10.458;2023-05-10T09:32:48;17.90;90.90
7240;DHT22;3661;53.288;10.458;2023-05-10T09:35:22;17.90;91.10
7240;DHT22;3661;53.288;10.458;2023-05-10T09:37:56;17.90;91.30
7240;DHT22;3661;53.288;10.458;2023-05-10T09:40:29;17.90;91.60
7240;DHT22;3661;53.288;10.458;2023-05-10T09:43:06;17.90;91.80
7240;DHT22;3661;53.288;10.458;2023-05-10T09:45:41;18.00;92.00
7240;DHT22;3661;53.288;10.458;2023-05-10T09:48:13;18.00;92.00
7240;DHT22;3661;53.288;10.458;2023-05-10T09:50:56;18.00;92.00
7240;DHT22;3661;53.288;10.458;2023-05-10T09:53:29;18.00;92.10
7240;DHT22;3661;53.288;10.458;2023-05-10T09:56:01;18.00;92.20
7240;DHT22;3661;53.288;10.458;2023-05-10T09:58:36;18.00;92.30
7240;DHT22;3661;53.288;10.458;2023-05-10T10:01:12;18.00;92.40
7240;DHT22;3661;53.288;10.458;2023-05-10T10:03:45;18.00;92.60
7240;DHT22;3661;53.288;10.458;2023-05-10T10:06:19;18.00;92.70
7240;DHT22;3661;53.288;10.458;2023-05-10T10:08:51;17.90;92.90
7240;DHT22;3661;53.288;10.458;2023-05-10T10:11:24;17.90;93.10
7240;DHT22;3661;53.288;10.458;2023-05-10T10:13:56;17.90;93.30
7240;DHT22;3661;53.288;10.458;2023-05-10T10:16:30;17.90;93.40
7240;DHT22;3661;53.288;10.458;2023-05-10T10:19:03;17.80;93.60
7240;DHT22;3661;53.288;10.458;2023-05-10T10:21:35;17.80;93.80
7240;DHT22;3661;53.288;10.458;2023-05-10T10:24:07;17.80;94.00
7240;DHT22;3661;53.288;10.458;2023-05-10T10:26:40;17.80;94.50
7240;DHT22;3661;53.288;10.458;2023-05-10T10:29:21;17.70;94.30
7240;DHT22;3661;53.288;10.458;2023-05-10T10:32:03;17.70;94.40
7240;DHT22;3661;53.288;10.458;2023-05-10T10:34:40;17.70;94.70
7240;DHT22;3661;53.288;10.458;2023-05-10T10:37:12;17.60;94.90
7240;DHT22;3661;53.288;10.458;2023-05-10T10:39:44;17.60;95.30
7240;DHT22;3661;53.288;10.458;2023-05-10T10:42:44;17.60;95.60
7240;DHT22;3661;53.288;10.458;2023-05-10T10:45:16;17.50;96.10
7240;DHT22;3661;53.288;10.458;2023-05-10T10:48:05;17.50;97.00
7240;DHT22;3661;53.288;10.458;2023-05-10T10:50:56;17.40;97.70
7240;DHT22;3661;53.288;10.458;2023-05-10T10:53:30;17.30;98.70
7240;DHT22;3661;53.288;10.458;2023-05-10T10:56:06;17.20;99.40
7240;DHT22;3661;53.288;10.458;2023-05-10T10:58:49;17.10;99.90
7240;DHT22;3661;53.288;10.458;2023-05-10T11:01:21;17.10;99.90
7240;DHT22;3661;53.288;10.458;2023-05-10T11:04:18;17.00;99.90
7240;DHT22;3661;53.288;10.458;2023-05-10T11:07:15;16.90;99.90
7240;DHT22;3661;53.288;10.458;2023-05-10T11:09:48;16.80;99.90
7240;DHT22;3661;53.288;10.458;2023-05-10T11:12:20;16.80;99.90
7240;DHT22;3661;53.288;10.458;2023-05-10T11:14:52;16.70;99.90
7240;DHT22;3661;53.288;10.458;2023-05-10T11:17:35;16.60;99.90
7240;DHT22;3661;53.288;10.458;2023-05-10T11:20:09;16.60;99.90
7240;DHT22;3661;53.288;10.458;2023-05-10T11:22:51;16.50;99.90
7240;DHT22;3661;53.288;10.458;2023-05-10T11:25:26;16.50;99.90
7240;DHT22;3661;53.288;10.458;2023-05-10T11:28:03;16.40;99.90
7240;DHT22;3661;53.288;10.458;2023-05-10T11:30:36;16.40;99.90
7240;DHT22;3661;53.288;10.458;2023-05-10T11:33:08;16.40;99.90
7240;DHT22;3661;53.288;10.458;2023-05-10T11:35:42;16.40;99.90
7240;DHT22;3661;53.288;10.458;2023-05-10T11:38:14;16.30;99.90
7240;DHT22;3661;53.288;10.458;2023-05-10T11:40:46;16.30;99.90
7240;DHT22;3661;53.288;10.458;2023-05-10T11:43:18;16.30;99.90
7240;DHT22;3661;53.288;10.458;2023-05-10T11:45:50;16.30;99.90
7240;DHT22;3661;53.288;10.458;2023-05-10T11:48:23;16.20;99.90
7240;DHT22;3661;53.288;10.458;2023-05-10T11:50:56;16.20;99.90
7240;DHT22;3661;53.288;10.458;2023-05-10T11:53:30;16.20;99.90
7240;DHT22;3661;53.288;10.458;2023-05-10T11:56:03;16.20;99.90
7240;DHT22;3661;53.288;10.458;2023-05-10T11:58:37;16.30;99.90
7240;DHT22;3661;53.288;10.458;2023-05-10T12:01:09;16.30;99.90
7240;DHT22;3661;53.288;10.458;2023-05-10T12:03:42;16.30;99.90
7240;DHT22;3661;53.288;10.458;2023-05-10T12:06:15;16.30;99.90
7240;DHT22;3661;53.288;10.458;2023-05-10T12:08:48;16.30;99.90
7240;DHT22;3661;53.288;10.458;2023-05-10T12:11:25;16.30;99.90
7240;DHT22;3661;53.288;10.458;2023-05-10T12:13:58;16.40;99.90
7240;DHT22;3661;53.288;10.458;2023-05-10T12:16:30;16.40;99.90
7240;DHT22;3661;53.288;10.458;2023-05-10T12:19:02;16.40;99.90
7240;DHT22;3661;53.288;10.458;2023-05-10T12:21:35;16.50;99.90
7240;DHT22;3661;53.288;10.458;2023-05-10T12:24:09;16.50;99.90
7240;DHT22;3661;53.288;10.458;2023-05-10T12:26:41;16.50;99.90
7240;DHT22;3661;53.288;10.458;2023-05-10T12:29:15;16.50;99.90
7240;DHT22;3661;53.288;10.458;2023-05-10T12:31:55;16.60;99.90
7240;DHT22;3661;53.288;10.458;2023-05-10T12:34:30;16.60;99.90
7240;DHT22;3661;53.288;10.458;2023-05-10T12:37:04;16.70;99.90
7240;DHT22;3661;53.288;10.458;2023-05-10T12:39:40;16.70;99.90
7240;DHT22;3661;53.288;10.458;2023-05-10T12:42:12;16.70;99.90
7240;DHT22;3661;53.288;10.458;2023-05-10T12:44:44;16.70;99.90
7240;DHT22;3661;53.288;10.458;2023-05-10T12:47:16;16.70;99.90
7240;DHT22;3661;53.288;10.458;2023-05-10T12:49:48;16.70;99.90
7240;DHT22;3661;53.288;10.458;2023-05-10T12:52:23;16.80;99.90
7240;DHT22;3661;53.288;10.458;2023-05-10T12:54:55;16.80;99.90
7240;DHT22;3661;53.288;10.458;2023-05-10T12:57:27;16.80;99.90
7240;DHT22;3661;53.288;10.458;2023-05-10T12:59:59;16.80;99.90
7240;DHT22;3661;53.288;10.458;2023-05-10T13:02:31;16.80;99.90
7240;DHT22;3661;53.288;10.458;2023-05-10T13:05:04;16.80;99.90
7240;DHT22;3661;53.288;10.458;2023-05-10T13:07:38;16.80;99.90
7240;DHT22;3661;53.288;10.458;2023-05-10T13:10:10;16.80;99.90
7240;DHT22;3661;53.288;10.458;2023-05-10T13:12:42;16.90;99.90
7240;DHT22;3661;53.288;10.458;2023-05-10T13:15:14;16.90;99.90
7240;DHT22;3661;53.288;10.458;2023-05-10T13:17:47;16.90;99.90
7240;DHT22;3661;53.288;10.458;2023-05-10T13:20:19;17.00;99.90
7240;DHT22;3661;53.288;10.458;2023-05-10T13:22:52;17.00;99.90
7240;DHT22;3661;53.288;10.458;2023-05-10T13:25:25;17.10;99.90
7240;DHT22;3661;53.288;10.458;2023-05-10T13:27:57;17.10;99.90
7240;DHT22;3661;53.288;10.458;2023-05-10T13:30:29;17.20;99.90
7240;DHT22;3661;53.288;10.458;2023-05-10T13:33:01;17.20;99.90
7240;DHT22;3661;53.288;10.458;2023-05-10T13:35:33;17.30;99.90
7240;DHT22;3661;53.288;10.458;2023-05-10T13:38:07;17.30;99.90
7240;DHT22;3661;53.288;10.458;2023-05-10T13:40:39;17.40;99.90
7240;DHT22;3661;53.288;10.458;2023-05-10T13:43:11;17.40;99.90
7240;DHT22;3661;53.288;10.458;2023-05-10T13:45:43;17.50;99.90
7240;DHT22;3661;53.288;10.458;2023-05-10T13:48:15;17.50;99.90
7240;DHT22;3661;53.288;10.458;2023-05-10T13:50:47;17.50;99.90
7240;DHT22;3661;53.288;10.458;2023-05-10T13:53:21;17.60;99.90
7240;DHT22;3661;53.288;10.458;2023-05-10T13:55:53;17.60;99.90
7240;DHT22;3661;53.288;10.458;2023-05-10T13:58:25;17.60;99.90
7240;DHT22;3661;53.288;10.458;2023-05-10T14:00:57;17.70;99.90
7240;DHT22;3661;53.288;10.458;2023-05-10T14:03:29;17.70;99.90
7240;DHT22;3661;53.288;10.458;2023-05-10T14:06:01;17.70;99.90
7240;DHT22;3661;53.288;10.458;2023-05-10T14:08:35;17.70;99.90
7240;DHT22;3661;53.288;10.458;2023-05-10T14:11:07;17.80;99.90
7240;DHT22;3661;53.288;10.458;2023-05-10T14:13:39;17.90;99.90
7240;DHT22;3661;53.288;10.458;2023-05-10T14:16:11;17.90;99.90
7240;DHT22;3661;53.288;10.458;2023-05-10T14:18:45;18.00;99.90
7240;DHT22;3661;53.288;10.458;2023-05-10T14:21:19;18.00;99.90
7240;DHT22;3661;53.288;10.458;2023-05-10T14:23:53;18.00;99.90
7240;DHT22;3661;53.288;10.458;2023-05-10T14:26:25;18.10;99.90
7240;DHT22;3661;53.288;10.458;2023-05-10T14:28:57;18.20;99.90
7240;DHT22;3661;53.288;10.458;2023-05-10T14:31:29;18.30;99.90
7240;DHT22;3661;53.288;10.458;2023-05-10T14:34:01;18.40;99.90
7240;DHT22;3661;53.288;10.458;2023-05-10T14:36:33;18.50;99.90
7240;DHT22;3661;53.288;10.458;2023-05-10T14:39:07;18.60;99.90
7240;DHT22;3661;53.288;10.458;2023-05-10T14:41:43;18.70;99.90
7240;DHT22;3661;53.288;10.458;2023-05-10T14:44:16;18.80;99.90
7240;DHT22;3661;53.288;10.458;2023-05-10T14:46:48;18.90;99.90
7240;DHT22;3661;53.288;10.458;2023-05-10T14:49:20;18.90;99.90
7240;DHT22;3661;53.288;10.458;2023-05-10T14:51:53;19.00;99.90
7240;DHT22;3661;53.288;10.458;2023-05-10T14:54:26;19.10;99.90
7240;DHT22;3661;53.288;10.458;2023-05-10T14:56:58;19.10;99.90
7240;DHT22;3661;53.288;10.458;2023-05-10T14:59:30;19.10;99.90
7240;DHT22;3661;53.288;10.458;2023-05-10T15:02:03;19.20;99.90
7240;DHT22;3661;53.288;10.458;2023-05-10T15:04:35;19.20;99.90
7240;DHT22;3661;53.288;10.458;2023-05-10T15:07:08;19.30;99.90
7240;DHT22;3661;53.288;10.458;2023-05-10T15:09:46;19.30;99.90
7240;DHT22;3661;53.288;10.458;2023-05-10T15:12:18;19.40;99.90
7240;DHT22;3661;53.288;10.458;2023-05-10T15:14:50;19.40;99.90
7240;DHT22;3661;53.288;10.458;2023-05-10T15:17:22;19.40;99.90
7240;DHT22;3661;53.288;10.458;2023-05-10T15:19:54;19.50;99.90
7240;DHT22;3661;53.288;10.458;2023-05-10T15:22:27;19.50;99.90
7240;DHT22;3661;53.288;10.458;2023-05-10T15:25:01;19.50;99.90
7240;DHT22;3661;53.288;10.458;2023-05-10T15:27:33;19.50;99.90
7240;DHT22;3661;53.288;10.458;2023-05-10T15:30:07;19.50;99.90
7240;DHT22;3661;53.288;10.458;2023-05-10T15:32:39;19.50;99.90
7240;DHT22;3661;53.288;10.458;2023-05-10T15:35:11;19.50;99.90
7240;DHT22;3661;53.288;10.458;2023-05-10T15:37:43;19.60;99.90
7240;DHT22;3661;53.288;10.458;2023-05-10T15:40:16;19.60;99.90
7240;DHT22;3661;53.288;10.458;2023-05-10T15:42:48;19.60;99.90
7240;DHT22;3661;53.288;10.458;2023-05-10T15:45:20;19.60;99.90
7240;DHT22;3661;53.288;10.458;2023-05-10T15:47:53;19.60;99.90
7240;DHT22;3661;53.288;10.458;2023-05-10T15:50:25;19.60;99.90
7240;DHT22;3661;53.288;10.458;2023-05-10T15:52:57;19.60;99.90
7240;DHT22;3661;53.288;10.458;2023-05-10T15:55:31;19.60;99.90
7240;DHT22;3661;53.288;10.458;2023-05-10T15:58:03;19.60;99.90
7240;DHT22;3661;53.288;10.458;2023-05-10T16:00:35;19.60;99.90
7240;DHT22;3661;53.288;10.458;2023-05-10T16:03:07;19.60;99.90
7240;DHT22;3661;53.288;10.458;2023-05-10T16:05:39;19.60;99.90
7240;DHT22;3661;53.288;10.458;2023-05-10T16:08:11;19.60;99.90
7240;DHT22;3661;53.288;10.458;2023-05-10T16:10:45;19.60;99.90
7240;DHT22;3661;53.288;10.458;2023-05-10T16:13:17;19.50;99.90
7240;DHT22;3661;53.288;10.458;2023-05-10T16:15:49;19.50;99.90
7240;DHT22;3661;53.288;10.458;2023-05-10T16:18:21;19.50;99.90
7240;DHT22;3661;53.288;10.458;2023-05-10T16:20:53;19.50;99.90
7240;DHT22;3661;53.288;10.458;2023-05-10T16:23:27;19.40;99.90
7240;DHT22;3661;53.288;10.458;2023-05-10T16:26:00;19.40;99.90
7240;DHT22;3661;53.288;10.458;2023-05-10T16:28:32;19.40;99.90
7240;DHT22;3661;53.288;10.458;2023-05-10T16:31:05;19.30;99.90
7240;DHT22;3661;53.288;10.458;2023-05-10T16:33:37;19.30;99.90